createdAt,value
2023-04-11T00:00:36.474Z,7.01
2023-04-11T00:03:04.035Z,7.01
2023-04-11T00:05:33.767Z,7.04
2023-04-11T00:08:00.653Z,7.12
2023-04-11T00:10:27.134Z,7.17
2023-04-11T00:12:56.704Z,7.15
2023-04-11T00:15:24.737Z,7.14
2023-04-11T00:17:51.241Z,7.14
2023-04-11T00:20:17.804Z,7.13
2023-04-11T00:22:44.310Z,7.18
2023-04-11T00:25:10.904Z,7.22
2023-04-11T00:27:37.505Z,7.25
2023-04-11T00:30:06.767Z,7.29
2023-04-11T00:32:33.468Z,7.29
2023-04-11T00:34:59.897Z,7.32
2023-04-11T00:37:26.298Z,7.38
2023-04-11T00:39:55.787Z,7.42
2023-04-11T00:42:22.321Z,7.43
2023-04-11T00:44:48.857Z,7.47
2023-04-11T00:47:15.630Z,7.49
2023-04-11T00:49:42.736Z,7.47
2023-04-11T00:52:09.396Z,7.51
2023-04-11T00:54:35.953Z,7.54
2023-04-11T00:57:04.288Z,7.54
2023-04-11T00:59:34.239Z,7.62
2023-04-11T01:02:01.752Z,7.64
2023-04-11T01:04:29.860Z,7.64
2023-04-11T01:07:07.752Z,7.71
2023-04-11T01:09:36.038Z,7.75
2023-04-11T01:12:04.164Z,7.81
2023-04-11T01:14:31.140Z,7.87
2023-04-11T01:17:01.701Z,7.93
2023-04-11T01:19:29.285Z,7.91
2023-04-11T01:21:57.815Z,7.88
2023-04-11T01:24:24.781Z,7.87
2023-04-11T01:26:52.003Z,7.88
2023-04-11T01:29:19.000Z,7.84
2023-04-11T01:31:46.198Z,7.85
2023-04-11T01:34:32.641Z,7.86
2023-04-11T01:36:59.221Z,7.81
2023-04-11T01:39:25.686Z,7.84
2023-04-11T01:41:54.210Z,7.85
2023-04-11T01:44:21.029Z,7.93
2023-04-11T01:46:47.888Z,7.94
2023-04-11T01:49:15.935Z,7.94
2023-04-11T01:51:42.619Z,7.92
2023-04-11T01:54:09.232Z,7.94
2023-04-11T01:56:37.688Z,7.93
2023-04-11T01:59:04.427Z,7.93
2023-04-11T02:01:31.882Z,7.94
2023-04-11T02:03:58.560Z,7.91
2023-04-11T02:06:26.502Z,7.89
2023-04-11T02:08:53.508Z,7.88
2023-04-11T02:11:21.286Z,7.88
2023-04-11T02:13:49.149Z,7.87
2023-04-11T02:16:16.055Z,7.92
2023-04-11T02:18:44.190Z,7.92
2023-04-11T02:21:11.140Z,7.94
2023-04-11T02:23:37.889Z,7.98
2023-04-11T02:26:06.052Z,8.04
2023-04-11T02:28:32.560Z,8.08
2023-04-11T02:30:59.157Z,8.10
2023-04-11T02:33:26.216Z,8.18
2023-04-11T02:35:52.701Z,8.20
2023-04-11T02:38:21.146Z,8.22
2023-04-11T02:40:47.973Z,8.24
2023-04-11T02:43:15.182Z,8.22
2023-04-11T02:45:42.295Z,8.25
2023-04-11T02:48:10.072Z,8.29
2023-04-11T02:50:41.819Z,8.30
2023-04-11T02:53:08.492Z,8.32
2023-04-11T02:55:41.553Z,8.27
2023-04-11T02:58:08.042Z,8.23
2023-04-11T03:00:34.492Z,8.22
2023-04-11T03:03:06.505Z,8.15
2023-04-11T03:05:38.636Z,8.07
2023-04-11T03:08:08.692Z,8.04
2023-04-11T03:10:36.714Z,8.04
2023-04-11T03:13:04.477Z,7.98
2023-04-11T03:15:32.355Z,7.94
2023-04-11T03:18:03.310Z,7.94
2023-04-11T03:20:29.900Z,7.94
2023-04-11T03:22:56.651Z,7.96
2023-04-11T03:25:24.236Z,7.94
2023-04-11T03:27:51.600Z,7.94
2023-04-11T03:30:18.084Z,7.93
2023-04-11T03:32:47.064Z,7.93
2023-04-11T03:35:14.690Z,7.93
2023-04-11T03:37:45.315Z,7.90
2023-04-11T03:40:12.031Z,7.86
2023-04-11T03:42:42.031Z,7.85
2023-04-11T03:45:17.019Z,7.87
2023-04-11T03:47:43.941Z,7.87
2023-04-11T03:50:12.561Z,7.85
2023-04-11T03:52:44.501Z,7.85
2023-04-11T03:55:14.140Z,7.87
2023-04-11T03:57:40.813Z,7.83
2023-04-11T04:00:08.209Z,7.81
2023-04-11T04:02:41.801Z,7.82
2023-04-11T04:05:11.503Z,7.77
2023-04-11T04:07:39.124Z,7.76
2023-04-11T04:10:12.474Z,7.76
2023-04-11T04:12:40.755Z,7.73
2023-04-11T04:15:14.936Z,7.73
2023-04-11T04:17:43.810Z,7.72
2023-04-11T04:20:16.530Z,7.72
2023-04-11T04:22:48.055Z,7.73
2023-04-11T04:25:19.953Z,7.68
2023-04-11T04:27:48.129Z,7.65
2023-04-11T04:30:15.701Z,7.61
2023-04-11T04:33:00.914Z,7.61
2023-04-11T04:35:29.271Z,7.60
2023-04-11T04:37:57.848Z,7.59
2023-04-11T04:40:41.685Z,7.57
2023-04-11T04:43:11.540Z,7.57
2023-04-11T04:45:48.001Z,7.55
2023-04-11T04:48:19.766Z,7.51
2023-04-11T04:50:47.120Z,7.44
2023-04-11T04:53:13.576Z,7.33
2023-04-11T04:55:46.307Z,7.29
2023-04-11T04:58:12.712Z,7.25
2023-04-11T05:00:40.126Z,7.20
2023-04-11T05:03:17.262Z,7.13
2023-04-11T05:05:43.839Z,7.09
2023-04-11T05:08:10.296Z,7.08
2023-04-11T05:10:38.234Z,7.02
2023-04-11T05:13:06.570Z,7.02
2023-04-11T05:15:33.280Z,6.98
2023-04-11T05:17:59.810Z,6.97
2023-04-11T05:20:29.528Z,6.97
2023-04-11T05:22:57.219Z,6.97
2023-04-11T05:25:23.710Z,6.97
2023-04-11T05:27:51.301Z,6.94
2023-04-11T05:30:21.938Z,6.91
2023-04-11T05:32:49.500Z,6.93
2023-04-11T05:35:16.481Z,6.93
2023-04-11T05:37:50.043Z,6.94
2023-04-11T05:40:17.667Z,6.98
2023-04-11T05:42:44.161Z,6.95
2023-04-11T05:45:10.886Z,6.97
2023-04-11T05:47:37.403Z,6.98
2023-04-11T05:50:04.784Z,6.97
2023-04-11T05:52:31.288Z,7.05
2023-04-11T05:54:57.730Z,7.09
2023-04-11T05:57:24.115Z,7.11
2023-04-11T05:59:52.914Z,7.19
2023-04-11T06:02:19.566Z,7.25
2023-04-11T06:04:46.170Z,7.29
2023-04-11T06:07:12.837Z,7.33
2023-04-11T06:09:42.097Z,7.36
2023-04-11T06:12:08.966Z,7.41
2023-04-11T06:14:36.243Z,7.48
2023-04-11T06:17:03.954Z,7.54
2023-04-11T06:19:30.414Z,7.58
2023-04-11T06:21:56.882Z,7.65
2023-04-11T06:24:37.530Z,7.73
2023-04-11T06:27:04.137Z,7.80
2023-04-11T06:29:30.933Z,7.88
2023-04-11T06:31:59.004Z,7.95
2023-04-11T06:34:25.506Z,8.02
2023-04-11T06:36:51.962Z,8.11
2023-04-11T06:39:18.584Z,8.20
2023-04-11T06:41:46.956Z,8.28
2023-04-11T06:44:20.897Z,8.36
2023-04-11T06:46:47.322Z,8.47
2023-04-11T06:49:13.945Z,8.64
2023-04-11T06:51:40.675Z,8.77
2023-04-11T06:54:07.046Z,8.93
2023-04-11T06:56:33.460Z,8.96
2023-04-11T06:58:59.926Z,9.05
2023-04-11T07:01:30.672Z,9.17
2023-04-11T07:03:59.207Z,9.13
2023-04-11T07:06:27.096Z,9.07
2023-04-11T07:08:53.693Z,9.09
2023-04-11T07:11:20.304Z,9.22
2023-04-11T07:13:47.191Z,9.63
2023-04-11T07:16:13.744Z,10.60
2023-04-11T07:18:40.258Z,10.39
2023-04-11T07:21:07.062Z,10.48
2023-04-11T07:23:33.452Z,10.44
2023-04-11T07:25:59.948Z,10.50
2023-04-11T07:28:28.722Z,10.51
2023-04-11T07:30:55.290Z,11.27
2023-04-11T07:33:21.848Z,10.94
2023-04-11T07:35:48.275Z,10.59
2023-04-11T07:38:15.631Z,11.50
2023-04-11T07:40:42.367Z,11.70
2023-04-11T07:43:08.897Z,11.99
2023-04-11T07:45:36.415Z,11.65
2023-04-11T07:48:02.840Z,12.76
2023-04-11T07:50:29.273Z,13.24
2023-04-11T07:52:56.906Z,13.53
2023-04-11T07:55:23.328Z,12.96
2023-04-11T07:57:49.750Z,13.48
2023-04-11T08:00:23.142Z,13.16
2023-04-11T08:02:50.933Z,12.64
2023-04-11T08:05:18.071Z,12.01
2023-04-11T08:07:44.560Z,11.50
2023-04-11T08:10:10.994Z,11.42
2023-04-11T08:12:37.480Z,12.41
2023-04-11T08:15:04.882Z,11.99
2023-04-11T08:17:37.610Z,13.21
2023-04-11T08:20:11.963Z,14.01
2023-04-11T08:22:44.521Z,14.35
2023-04-11T08:25:11.946Z,13.71
2023-04-11T08:27:39.083Z,13.48
2023-04-11T08:30:06.854Z,13.40
2023-04-11T08:32:33.312Z,13.98
2023-04-11T08:34:59.714Z,14.45
2023-04-11T08:37:27.749Z,14.32
2023-04-11T08:39:54.267Z,13.09
2023-04-11T08:42:28.400Z,13.93
2023-04-11T08:45:00.666Z,13.73
2023-04-11T08:47:27.323Z,12.85
2023-04-11T08:49:54.110Z,13.00
2023-04-11T08:52:20.841Z,13.19
2023-04-11T08:54:48.321Z,13.10
2023-04-11T08:57:31.334Z,12.56
2023-04-11T09:00:14.616Z,11.88
2023-04-11T09:03:04.276Z,11.83
2023-04-11T09:05:36.087Z,12.24
2023-04-11T09:08:04.467Z,12.63
2023-04-11T09:10:30.969Z,12.62
2023-04-11T09:12:57.643Z,12.88
2023-04-11T09:15:27.338Z,13.08
2023-04-11T09:17:56.631Z,12.88
2023-04-11T09:20:30.406Z,12.54
2023-04-11T09:23:01.517Z,12.51
2023-04-11T09:25:28.525Z,12.21
2023-04-11T09:28:08.617Z,12.01
2023-04-11T09:30:35.399Z,11.89
2023-04-11T09:33:22.449Z,12.06
2023-04-11T09:35:51.181Z,11.81
2023-04-11T09:38:32.290Z,11.47
2023-04-11T09:41:00.741Z,11.32
2023-04-11T09:43:27.253Z,11.18
2023-04-11T09:46:23.246Z,11.22
2023-04-11T09:48:51.164Z,11.72
2023-04-11T09:51:34.380Z,12.25
2023-04-11T09:54:04.098Z,12.32
2023-04-11T09:56:31.167Z,11.97
2023-04-11T09:58:59.851Z,11.87
2023-04-11T10:01:26.306Z,11.88
2023-04-11T10:03:54.052Z,12.16
2023-04-11T10:06:31.381Z,12.42
2023-04-11T10:09:09.618Z,12.76
2023-04-11T10:11:36.925Z,13.02
2023-04-11T10:14:03.681Z,13.31
2023-04-11T10:16:33.869Z,13.62
2023-04-11T10:19:04.486Z,13.66
2023-04-11T10:21:30.891Z,13.50
2023-04-11T10:24:17.864Z,13.14
2023-04-11T10:26:51.942Z,12.71
2023-04-11T10:29:33.786Z,12.82
2023-04-11T10:32:13.282Z,12.87
2023-04-11T10:35:00.658Z,12.70
2023-04-11T10:37:30.287Z,12.75
2023-04-11T10:40:09.706Z,12.93
2023-04-11T10:42:39.756Z,12.90
2023-04-11T10:45:17.774Z,12.42
2023-04-11T10:48:01.130Z,12.88
2023-04-11T10:50:27.661Z,12.95
2023-04-11T10:53:09.419Z,12.56
2023-04-11T10:55:49.020Z,12.66
2023-04-11T10:58:19.336Z,12.94
2023-04-11T11:00:52.247Z,13.31
2023-04-11T11:03:20.364Z,13.32
2023-04-11T11:05:48.037Z,13.00
2023-04-11T11:08:14.454Z,12.67
2023-04-11T11:10:42.194Z,12.34
2023-04-11T11:13:09.580Z,12.74
2023-04-11T11:15:40.681Z,12.66
2023-04-11T11:18:09.140Z,12.92
2023-04-11T11:20:37.484Z,12.78
2023-04-11T11:23:06.537Z,12.52
2023-04-11T11:25:33.424Z,12.42
2023-04-11T11:28:05.901Z,12.35
2023-04-11T11:30:32.907Z,12.54
2023-04-11T11:32:59.619Z,13.02
2023-04-11T11:35:26.324Z,12.97
2023-04-11T11:37:53.983Z,12.52
2023-04-11T11:40:22.196Z,12.50
2023-04-11T11:42:50.778Z,12.50
2023-04-11T11:45:22.152Z,12.22
2023-04-11T11:47:50.425Z,12.35
2023-04-11T11:50:31.459Z,12.41
2023-04-11T11:53:15.430Z,12.67
2023-04-11T11:55:43.212Z,12.89
2023-04-11T11:58:09.726Z,12.95
2023-04-11T12:00:38.730Z,12.83
2023-04-11T12:03:06.572Z,13.15
2023-04-11T12:05:34.860Z,13.53
2023-04-11T12:08:04.326Z,13.90
2023-04-11T12:10:39.244Z,14.08
2023-04-11T12:13:19.000Z,14.01
2023-04-11T12:15:53.947Z,13.82
2023-04-11T12:18:25.228Z,13.76
2023-04-11T12:20:52.411Z,13.68
2023-04-11T12:23:19.230Z,13.73
2023-04-11T12:25:46.393Z,13.89
2023-04-11T12:28:13.727Z,13.80
2023-04-11T12:30:40.539Z,13.84
2023-04-11T12:33:07.234Z,13.93
2023-04-11T12:35:33.841Z,13.86
2023-04-11T12:38:00.497Z,13.83
2023-04-11T12:40:28.193Z,13.54
2023-04-11T12:42:57.251Z,13.11
2023-04-11T12:45:24.401Z,13.33
2023-04-11T12:47:51.009Z,13.25
2023-04-11T12:50:17.898Z,13.12
2023-04-11T12:52:44.443Z,13.39
2023-04-11T12:55:13.195Z,13.41
2023-04-11T12:57:39.985Z,13.37
2023-04-11T13:00:07.734Z,13.49
2023-04-11T13:02:42.321Z,13.44
2023-04-11T13:05:11.677Z,13.77
2023-04-11T13:07:39.115Z,14.01
2023-04-11T13:10:09.267Z,14.16
2023-04-11T13:12:41.203Z,14.09
2023-04-11T13:15:09.529Z,13.83
2023-04-11T13:17:36.158Z,13.95
2023-04-11T13:20:07.067Z,13.89
2023-04-11T13:22:34.006Z,13.89
2023-04-11T13:25:00.587Z,13.78
2023-04-11T13:27:27.576Z,13.80
2023-04-11T13:29:54.009Z,13.83
2023-04-11T13:32:21.048Z,13.60
2023-04-11T13:34:47.581Z,13.19
2023-04-11T13:37:14.122Z,13.28
2023-04-11T13:39:40.655Z,13.30
2023-04-11T13:42:07.071Z,13.46
2023-04-11T13:44:33.583Z,13.51
2023-04-11T13:47:01.206Z,13.48
2023-04-11T13:49:27.597Z,13.66
2023-04-11T13:51:54.087Z,13.74
2023-04-11T13:54:20.566Z,13.87
2023-04-11T13:56:47.010Z,13.92
2023-04-11T13:59:13.432Z,14.12
2023-04-11T14:01:40.500Z,14.09
2023-04-11T14:04:07.371Z,13.99
2023-04-11T14:06:35.305Z,13.87
2023-04-11T14:09:01.703Z,13.96
2023-04-11T14:11:28.132Z,14.01
2023-04-11T14:13:54.837Z,14.08
2023-04-11T14:16:21.514Z,14.18
2023-04-11T14:18:47.948Z,14.19
2023-04-11T14:21:14.459Z,13.92
2023-04-11T14:23:41.389Z,13.84
2023-04-11T14:26:08.096Z,13.91
2023-04-11T14:28:34.752Z,13.87
2023-04-11T14:31:01.252Z,13.81
2023-04-11T14:33:27.839Z,13.86
2023-04-11T14:35:54.449Z,13.94
2023-04-11T14:38:21.119Z,13.92
2023-04-11T14:40:47.556Z,14.00
2023-04-11T14:43:13.994Z,13.64
2023-04-11T14:45:40.834Z,13.35
2023-04-11T14:48:07.282Z,13.49
2023-04-11T14:50:33.934Z,13.72
2023-04-11T14:53:00.943Z,13.81
2023-04-11T14:55:27.416Z,13.65
2023-04-11T14:57:55.730Z,13.63
2023-04-11T15:00:24.394Z,13.47
2023-04-11T15:02:54.657Z,13.57
2023-04-11T15:05:23.083Z,13.65
2023-04-11T15:07:50.909Z,13.68
2023-04-11T15:10:19.727Z,13.66
2023-04-11T15:12:46.449Z,13.65
2023-04-11T15:15:13.506Z,13.86
2023-04-11T15:17:48.026Z,14.04
2023-04-11T15:20:15.797Z,13.98
2023-04-11T15:22:44.570Z,13.85
2023-04-11T15:25:13.438Z,13.81
2023-04-11T15:27:40.719Z,13.85
2023-04-11T15:30:08.337Z,13.79
2023-04-11T15:32:35.193Z,13.68
2023-04-11T15:35:01.677Z,13.52
2023-04-11T15:37:28.297Z,13.67
2023-04-11T15:39:55.293Z,13.74
2023-04-11T15:42:21.710Z,13.59
2023-04-11T15:44:48.171Z,13.54
2023-04-11T15:47:15.250Z,13.35
2023-04-11T15:49:41.833Z,13.33
2023-04-11T15:52:08.310Z,13.42
2023-04-11T15:54:34.785Z,13.38
2023-04-11T15:57:02.373Z,13.43
2023-04-11T15:59:29.406Z,13.39
2023-04-11T16:01:56.255Z,13.27
2023-04-11T16:04:22.961Z,13.24
2023-04-11T16:06:49.458Z,13.15
2023-04-11T16:09:16.220Z,13.09
2023-04-11T16:11:42.680Z,12.96
2023-04-11T16:14:09.124Z,12.90
2023-04-11T16:16:35.662Z,12.86
2023-04-11T16:19:03.043Z,12.83
2023-04-11T16:21:31.403Z,12.74
2023-04-11T16:23:58.082Z,12.67
2023-04-11T16:26:24.844Z,12.61
2023-04-11T16:28:51.253Z,12.63
2023-04-11T16:31:21.927Z,12.56
2023-04-11T16:33:48.517Z,12.53
2023-04-11T16:36:15.591Z,12.55
2023-04-11T16:38:42.216Z,12.50
2023-04-11T16:41:08.682Z,12.47
2023-04-11T16:43:35.118Z,12.38
2023-04-11T16:46:01.613Z,12.34
2023-04-11T16:48:28.159Z,12.30
2023-04-11T16:50:54.562Z,12.22
2023-04-11T16:53:21.055Z,12.17
2023-04-11T16:55:47.549Z,12.10
2023-04-11T16:58:13.932Z,12.10
2023-04-11T17:00:40.381Z,12.05
2023-04-11T17:03:07.221Z,11.98
2023-04-11T17:05:37.877Z,11.92
2023-04-11T17:08:04.287Z,11.87
2023-04-11T17:10:30.672Z,11.83
2023-04-11T17:12:58.401Z,11.76
2023-04-11T17:15:25.078Z,11.74
2023-04-11T17:17:51.556Z,11.69
2023-04-11T17:20:17.981Z,11.66
2023-04-11T17:22:44.887Z,11.60
2023-04-11T17:25:11.368Z,11.51
2023-04-11T17:27:37.869Z,11.44
2023-04-11T17:30:05.461Z,11.33
2023-04-11T17:32:32.513Z,11.24
2023-04-11T17:34:59.006Z,11.17
2023-04-11T17:37:25.611Z,11.13
2023-04-11T17:39:52.193Z,11.08
2023-04-11T17:42:18.676Z,11.06
2023-04-11T17:44:45.805Z,11.01
2023-04-11T17:47:12.287Z,10.97
2023-04-11T17:49:38.703Z,10.94
2023-04-11T17:52:05.204Z,10.91
2023-04-11T17:54:31.716Z,10.91
2023-04-11T17:56:58.152Z,10.87
2023-04-11T17:59:25.387Z,10.85
2023-04-11T18:01:53.433Z,10.82
2023-04-11T18:04:20.303Z,10.80
2023-04-11T18:06:47.484Z,10.77
2023-04-11T18:09:17.459Z,10.74
2023-04-11T18:11:44.102Z,10.72
2023-04-11T18:14:10.866Z,10.71
2023-04-11T18:16:38.940Z,10.68
2023-04-11T18:19:05.475Z,10.64
2023-04-11T18:21:31.867Z,10.57
2023-04-11T18:23:58.567Z,10.48
2023-04-11T18:26:25.221Z,10.43
2023-04-11T18:28:51.664Z,10.38
2023-04-11T18:31:19.395Z,10.32
2023-04-11T18:33:47.199Z,10.29
2023-04-11T18:36:14.501Z,10.22
2023-04-11T18:38:41.272Z,10.22
2023-04-11T18:41:08.476Z,10.19
2023-04-11T18:43:38.547Z,10.17
2023-04-11T18:46:07.462Z,10.12
2023-04-11T18:48:34.595Z,10.07
2023-04-11T18:51:01.358Z,10.04
2023-04-11T18:53:29.806Z,10.01
2023-04-11T18:55:56.365Z,9.98
2023-04-11T18:58:25.569Z,9.93
2023-04-11T19:00:52.991Z,9.90
2023-04-11T19:03:19.686Z,9.87
2023-04-11T19:05:46.956Z,9.83
2023-04-11T19:08:13.618Z,9.82
2023-04-11T19:10:40.318Z,9.82
2023-04-11T19:13:06.859Z,9.83
2023-04-11T19:15:33.457Z,9.84
2023-04-11T19:17:59.986Z,9.85
2023-04-11T19:20:26.760Z,9.84
2023-04-11T19:22:53.215Z,9.84
2023-04-11T19:25:19.827Z,9.85
2023-04-11T19:27:47.071Z,9.85
2023-04-11T19:30:14.005Z,9.85
2023-04-11T19:32:43.265Z,9.86
2023-04-11T19:35:10.832Z,9.90
2023-04-11T19:37:37.806Z,9.90
2023-04-11T19:40:11.007Z,9.95
2023-04-11T19:42:39.074Z,9.96
2023-04-11T19:45:06.406Z,9.98
2023-04-11T19:47:32.984Z,9.96
2023-04-11T19:50:00.685Z,9.93
2023-04-11T19:52:27.882Z,9.87
2023-04-11T19:54:56.333Z,9.82
2023-04-11T19:57:23.675Z,9.79
2023-04-11T19:59:50.757Z,9.79
2023-04-11T20:02:17.420Z,9.78
2023-04-11T20:04:45.674Z,9.81
2023-04-11T20:07:12.449Z,9.83
2023-04-11T20:09:39.022Z,9.85
2023-04-11T20:12:06.674Z,9.89
2023-04-11T20:14:33.357Z,9.92
2023-04-11T20:17:01.485Z,9.93
2023-04-11T20:19:29.491Z,9.94
2023-04-11T20:21:56.090Z,9.96
2023-04-11T20:24:22.760Z,9.95
2023-04-11T20:26:49.877Z,9.98
2023-04-11T20:29:17.819Z,10.00
2023-04-11T20:31:44.678Z,10.04
2023-04-11T20:34:11.544Z,10.04
2023-04-11T20:36:38.226Z,10.03
2023-04-11T20:39:05.244Z,10.03
2023-04-11T20:41:32.252Z,10.03
2023-04-11T20:43:59.534Z,10.02
2023-04-11T20:46:29.864Z,10.03
2023-04-11T20:48:56.565Z,10.02
2023-04-11T20:51:23.269Z,10.04
2023-04-11T20:53:49.727Z,10.05
2023-04-11T20:56:16.168Z,10.06
2023-04-11T20:58:42.725Z,10.06
2023-04-11T21:01:09.171Z,10.06
2023-04-11T21:03:37.429Z,10.05
2023-04-11T21:06:07.326Z,10.06
2023-04-11T21:08:37.225Z,10.06
2023-04-11T21:11:04.857Z,10.04
2023-04-11T21:13:31.390Z,10.02
2023-04-11T21:15:58.401Z,10.01
2023-04-11T21:18:25.135Z,9.98
2023-04-11T21:20:51.635Z,9.97
2023-04-11T21:23:18.348Z,9.96
2023-04-11T21:25:44.840Z,9.93
2023-04-11T21:28:14.693Z,9.91
2023-04-11T21:30:42.247Z,9.88
2023-04-11T21:33:10.202Z,9.87
2023-04-11T21:35:36.711Z,9.87
2023-04-11T21:38:03.203Z,9.86
2023-04-11T21:40:29.884Z,9.84
2023-04-11T21:42:56.306Z,9.83
2023-04-11T21:45:23.288Z,9.82
2023-04-11T21:47:51.406Z,9.80
2023-04-11T21:50:18.112Z,9.78
2023-04-11T21:52:46.215Z,9.77
2023-04-11T21:55:14.385Z,9.78
2023-04-11T21:57:41.030Z,9.78
2023-04-11T22:00:10.653Z,9.79
2023-04-11T22:02:41.039Z,9.76
2023-04-11T22:05:09.071Z,9.76
2023-04-11T22:07:48.106Z,9.77
2023-04-11T22:10:15.418Z,9.75
2023-04-11T22:12:42.071Z,9.75
2023-04-11T22:15:11.004Z,9.74
2023-04-11T22:17:38.289Z,9.72
2023-04-11T22:20:06.626Z,9.70
2023-04-11T22:22:33.114Z,9.70
2023-04-11T22:24:59.881Z,9.66
2023-04-11T22:27:27.126Z,9.63
2023-04-11T22:29:56.096Z,9.60
2023-04-11T22:32:23.748Z,9.56
2023-04-11T22:34:50.488Z,9.53
2023-04-11T22:37:17.092Z,9.51
2023-04-11T22:39:43.605Z,9.49
2023-04-11T22:42:11.390Z,9.43
2023-04-11T22:44:38.145Z,9.40
2023-04-11T22:47:07.939Z,9.38
2023-04-11T22:49:41.027Z,9.33
2023-04-11T22:52:09.310Z,9.28
2023-04-11T22:54:35.727Z,9.23
2023-04-11T22:57:02.263Z,9.20
2023-04-11T22:59:30.920Z,9.17
2023-04-11T23:01:57.875Z,9.11
2023-04-11T23:04:45.741Z,9.07
2023-04-11T23:07:25.149Z,9.04
2023-04-11T23:10:13.743Z,9.03
2023-04-11T23:12:41.484Z,8.99
2023-04-11T23:15:09.410Z,8.95
2023-04-11T23:17:37.855Z,8.93
2023-04-11T23:20:10.985Z,8.90
2023-04-11T23:22:39.362Z,8.89
2023-04-11T23:25:06.420Z,8.87
2023-04-11T23:27:32.866Z,8.84
2023-04-11T23:29:59.778Z,8.83
2023-04-11T23:32:26.277Z,8.81
2023-04-11T23:34:55.203Z,8.78
2023-04-11T23:37:48.480Z,8.78
2023-04-11T23:40:14.979Z,8.76
2023-04-11T23:42:41.800Z,8.75
2023-04-11T23:45:16.939Z,8.72
2023-04-11T23:47:43.434Z,8.69
2023-04-11T23:54:40.485Z,8.58
2023-04-11T23:57:09.365Z,8.54
2023-04-11T23:59:44.531Z,8.50
